Latest Weather Observations for Renmark Airport

IDS60801

Issued at 10:31 pm CST Monday 3 August 2015 (issued every 30 minutes, with the page automatically refreshed every 10 minutes)

About weather observations | Map of weather stations | Latest weather observations for SA | Other Formats
Station Details ID: 024048 Name: RENMARK AERO Lat: -34.20 Lon: 140.68 Height: 31.5 m
Data from the previous 72 hours. | See also: Recent months at Renmark Airport
Date/Time
CST
Temp
°C
App
Temp
°C
Dew
Point
Rel
Hum
%
Delta-T
°C
Wind Press
QNH
hPa
Press
MSL
hPa
Rain
since 9 am
mm
Dir
 
Spd
km/h
Gust
km/h
Spd
kts
Gust
kts
03/10:30pm 8.1 6.1 7.2 94 0.4 W 7 9 4 5 1026.8 1026.8 1.2
03/10:00pm 8.2 6.2 7.1 93 0.5 WSW 7 11 4 6 1026.9 1026.9 1.2
03/09:30pm 8.4 6.4 7.3 93 0.5 WSW 7 9 4 5 1027.0 1027.0 1.2
03/09:00pm 8.5 6.1 7.1 91 0.7 SW 9 11 5 6 1026.8 1026.8 1.2
03/08:30pm 8.5 6.5 7.3 92 0.6 W 7 9 4 5 1026.7 1026.7 1.2
03/08:00pm 8.6 6.3 7.4 92 0.6 WSW 9 11 5 6 1026.6 1026.6 1.2
03/07:30pm 8.4 6.4 7.0 91 0.6 W 7 7 4 4 1026.3 1026.3 1.2
03/07:00pm 9.0 7.1 6.6 85 1.1 S 6 7 3 4 1026.1 1026.1 1.2
03/06:30pm 9.5 7.4 6.6 82 1.3 SW 7 9 4 5 1025.9 1025.9 1.2
03/06:00pm 9.7 6.0 6.1 78 1.7 SSW 15 22 8 12 1025.6 1025.6 1.2
03/05:30pm 10.4 8.2 7.8 84 1.2 SW 9 13 5 7 1025.3 1025.3 1.2
03/05:00pm 10.4 7.8 7.6 83 1.3 SW 11 15 6 8 1025.2 1025.2 1.2
03/04:30pm 10.7 7.0 7.8 82 1.4 SW 17 22 9 12 1025.0 1025.0 1.2
03/04:00pm 10.9 8.2 9.0 88 0.9 WSW 13 19 7 10 1024.7 1024.7 1.2
03/03:30pm 10.3 5.4 9.8 97 0.3 SW 26 35 14 19 1024.7 1024.7 1.2
03/03:26pm 10.3 5.0 10.0 98 0.2 SW 28 41 15 22 1024.6 1024.6 1.2
03/03:00pm 11.6 9.2 9.9 89 0.9 SSW 13 19 7 10 1024.0 1024.0 1.2
03/02:30pm 10.3 5.9 10.3 100 0.0 SW 24 39 13 21 1024.2 1024.2 1.0
03/02:23pm 10.9 5.0 9.2 89 0.8 SW 30 50 16 27 1024.1 1024.1 0.6
03/02:18pm 11.6 5.9 8.3 80 1.6 SW 28 50 15 27 1023.9 1023.9 0.6
03/02:00pm 14.8 10.6 7.4 61 3.7 SSW 19 30 10 16 1023.8 1023.8 0.6
03/01:30pm 12.1 7.1 8.2 77 1.9 SW 24 33 13 18 1023.9 1023.9 0.6
03/01:00pm 13.9 8.9 6.3 60 3.6 SW 22 33 12 18 1023.8 1023.8 0.6
03/12:30pm 11.3 7.7 9.7 90 0.8 SSW 19 26 10 14 1024.4 1024.4 0.6
03/12:00pm 13.6 8.4 7.2 65 3.1 SW 24 35 13 19 1024.4 1024.4 0.0
03/11:30am 13.0 7.7 6.8 66 3.0 WSW 24 32 13 17 1024.6 1024.6 0.0
03/11:00am 11.3 7.3 9.2 87 1.1 SW 20 32 11 17 1024.9 1024.9 0.0
03/10:30am 12.2 7.2 6.5 68 2.7 SW 22 32 12 17 1024.9 1024.9 0.0
03/10:00am 12.0 7.1 6.9 71 2.4 SW 22 32 12 17 1024.8 1024.8 0.0
03/09:30am 11.4 6.5 6.9 74 2.1 WSW 22 32 12 17 1024.5 1024.5 0.0
03/09:00am 11.1 6.9 8.1 82 1.5 W 20 30 11 16 1024.3 1024.3 0.0
03/08:30am 10.5 7.3 8.6 88 0.9 WSW 15 24 8 13 1024.1 1024.1 0.0
03/08:00am 9.2 6.6 9.2 100 0.0 WSW 13 17 7 9 1023.7 1023.7 0.0
03/07:30am 8.5 6.1 8.5 100 0.0 W 11 13 6 7 1023.2 1023.2 0.0
03/07:00am 9.1 6.1 9.1 100 0.0 W 15 19 8 10 1022.9 1022.9 0.0
03/06:30am 9.5 6.2 9.5 100 0.0 W 17 22 9 12 1022.7 1022.7 0.0
03/06:00am 9.4 5.7 9.4 100 0.0 W 19 28 10 15 1022.4 1022.4 0.0
03/05:30am 9.4 5.7 9.4 100 0.0 WSW 19 24 10 13 1022.2 1022.2 0.0
03/05:00am 9.6 5.9 9.6 100 0.0 WSW 19 26 10 14 1022.1 1022.1 0.0
03/04:30am 8.4 5.9 8.4 100 0.0 WNW 11 15 6 8 1021.7 1021.7 0.0
03/04:00am 8.3 4.6 7.9 97 0.2 WNW 17 20 9 11 1021.5 1021.5 0.0
03/03:30am 9.2 5.5 7.8 91 0.7 W 17 22 9 12 1021.5 1021.5 0.0
03/03:00am 9.7 5.0 7.6 87 1.0 WNW 22 28 12 15 1021.8 1021.8 0.0
03/02:30am 9.4 5.1 7.2 86 1.0 WNW 19 24 10 13 1021.7 1021.7 0.0
03/02:00am 9.5 5.3 7.4 87 1.0 WNW 19 22 10 12 1022.0 1022.0 0.0
03/01:30am 8.6 4.5 7.7 94 0.4 W 19 24 10 13 1021.9 1021.9 0.0
03/01:00am 8.2 5.1 7.4 95 0.4 W 13 17 7 9 1021.8 1021.8 0.0
03/12:30am 8.9 5.1 7.7 92 0.6 WNW 17 22 9 12 1021.8 1021.8 0.0
03/12:00am 9.4 5.5 7.3 87 1.0 WNW 17 20 9 11 1022.0 1022.0 0.0
 
Date/Time
CST
Temp
°C
App
Temp
°C
Dew
Point
Rel
Hum
%
Delta-T
°C
Wind Press
QNH
hPa
Press
MSL
hPa
Rain
since 9 am
mm
Dir
 
Spd
km/h
Gust
km/h
Spd
kts
Gust
kts
02/11:30pm 10.6 6.8 7.7 82 1.4 W 17 26 9 14 1022.1 1022.1 0.0
02/11:00pm 10.8 6.8 8.2 84 1.3 W 19 26 10 14 1022.2 1022.2 0.0
02/10:30pm 10.6 6.3 7.8 83 1.3 WNW 20 26 11 14 1022.2 1022.2 0.0
02/10:00pm 10.4 6.3 8.0 85 1.2 WNW 19 26 10 14 1022.1 1022.1 0.0
02/09:30pm 9.9 5.8 7.8 87 1.0 WNW 19 24 10 13 1021.9 1021.9 0.0
02/09:00pm 10.1 5.8 7.7 85 1.1 W 20 28 11 15 1021.9 1021.9 0.0
02/08:30pm 10.0 6.1 7.3 83 1.3 W 17 20 9 11 1021.6 1021.6 0.0
02/08:00pm 10.4 6.1 6.9 79 1.7 W 19 24 10 13 1021.3 1021.3 0.0
02/07:30pm 11.0 6.5 6.9 76 1.9 W 20 28 11 15 1021.1 1021.1 0.0
02/07:00pm 11.0 7.0 6.6 74 2.1 W 17 22 9 12 1020.8 1020.8 0.0
02/06:30pm 11.7 7.6 6.4 70 2.5 W 17 24 9 13 1020.6 1020.6 0.0
02/06:00pm 11.9 7.2 6.0 67 2.8 W 20 28 11 15 1020.3 1020.3 0.0
02/05:30pm 12.4 8.1 5.3 62 3.3 W 17 22 9 12 1019.9 1019.9 0.0
02/05:00pm 13.4 8.5 5.3 58 3.8 WSW 20 30 11 16 1019.7 1019.7 0.0
02/04:30pm 14.1 8.0 4.9 54 4.3 W 26 35 14 19 1019.4 1019.4 0.0
02/04:00pm 14.4 8.7 4.7 52 4.5 WSW 24 35 13 19 1019.3 1019.3 0.0
02/03:30pm 14.4 8.3 4.7 52 4.5 W 26 39 14 21 1019.3 1019.3 0.0
02/03:00pm 14.3 8.6 4.9 53 4.4 WSW 24 35 13 19 1019.3 1019.3 0.0
02/02:30pm 13.9 7.4 4.5 53 4.3 W 28 39 15 21 1019.1 1019.1 0.0
02/02:00pm 14.6 8.4 4.3 50 4.8 WSW 26 37 14 20 1018.9 1018.9 0.0
02/01:30pm 13.8 7.2 4.1 52 4.4 WSW 28 43 15 23 1019.1 1019.1 0.0
02/01:00pm 14.1 8.0 4.7 53 4.4 WSW 26 39 14 21 1019.2 1019.2 0.0
02/12:30pm 14.0 8.0 5.4 56 4.0 WSW 26 39 14 21 1019.4 1019.4 0.0
02/12:00pm 13.0 6.4 4.2 55 4.0 WSW 28 37 15 20 1019.8 1019.8 0.0
02/11:30am 12.6 6.9 5.1 60 3.5 WSW 24 37 13 20 1020.0 1020.0 0.0
02/11:00am 12.6 7.0 5.5 62 3.3 W 24 35 13 19 1020.2 1020.2 0.0
02/10:30am 12.1 6.9 5.5 64 3.1 WSW 22 32 12 17 1020.2 1020.2 0.0
02/10:00am 11.5 6.8 6.0 69 2.6 WSW 20 28 11 15 1020.2 1020.2 0.0
02/09:30am 10.4 5.8 6.7 78 1.7 W 20 28 11 15 1019.9 1019.9 0.0
02/09:00am 9.3 5.0 7.7 90 0.8 WSW 20 26 11 14 1019.7 1019.7 6.0
02/08:30am 8.1 5.2 8.1 100 0.0 W 13 19 7 10 1019.6 1019.6 6.0
02/08:00am 7.3 4.2 7.3 100 0.0 W 13 17 7 9 1019.4 1019.4 6.0
02/07:30am 5.8 3.5 5.8 100 0.0 W 7 9 4 5 1019.0 1019.0 6.0
02/07:00am 6.1 3.9 6.1 100 0.0 W 7 7 4 4 1018.7 1018.7 6.0
02/06:30am 6.5 4.4 6.5 100 0.0 W 7 7 4 4 1018.5 1018.5 6.0
02/06:00am 7.2 4.8 7.2 100 0.0 W 9 11 5 6 1018.1 1018.1 6.0
02/05:30am 7.4 5.5 7.4 100 0.0 SW 7 9 4 5 1017.7 1017.7 6.0
02/05:00am 7.5 4.8 7.5 100 0.0 SW 11 15 6 8 1017.9 1017.9 6.0
02/04:30am 7.6 4.2 7.6 100 0.0 SSW 15 22 8 12 1017.4 1017.4 5.8
02/04:00am 7.7 4.7 7.7 100 0.0 SSW 13 17 7 9 1017.5 1017.5 5.8
02/03:30am 7.8 4.8 7.8 100 0.0 S 13 17 7 9 1017.1 1017.1 5.8
02/03:00am 8.0 4.7 8.0 100 0.0 SSW 15 20 8 11 1017.8 1017.8 5.8
02/02:30am 8.6 5.1 8.6 100 0.0 SSW 17 24 9 13 1017.5 1017.5 5.6
02/02:00am 9.0 5.6 9.0 100 0.0 SSW 17 22 9 12 1017.6 1017.6 5.6
02/01:30am 9.3 6.7 9.3 100 0.0 SW 13 19 7 10 1017.9 1017.9 5.0
02/01:00am 9.4 7.2 9.4 100 0.0 SW 11 15 6 8 1017.6 1017.6 4.2
02/12:30am 9.4 8.0 9.4 100 0.0 SSW 7 9 4 5 1017.6 1017.6 4.2
02/12:00am 9.4 8.0 9.4 100 0.0 SSW 7 11 4 6 1017.8 1017.8 4.2
 
Date/Time
CST
Temp
°C
App
Temp
°C
Dew
Point
Rel
Hum
%
Delta-T
°C
Wind Press
QNH
hPa
Press
MSL
hPa
Rain
since 9 am
mm
Dir
 
Spd
km/h
Gust
km/h
Spd
kts
Gust
kts
01/11:30pm 9.3 7.5 9.3 100 0.0 SSW 9 13 5 7 1017.9 1017.9 4.2
01/11:00pm 9.2 7.3 9.2 100 0.0 SSW 9 11 5 6 1017.4 1017.4 4.2
01/10:30pm 8.8 7.4 8.8 100 0.0 SSW 6 7 3 4 1017.1 1017.1 4.2
01/10:00pm 9.3 7.5 9.3 100 0.0 SSW 9 9 5 5 1016.9 1016.9 4.2
01/09:30pm 9.6 8.8 9.6 100 0.0 SSW 4 9 2 5 1016.9 1016.9 4.2
01/09:00pm 9.9 8.8 9.9 100 0.0 SSE 6 7 3 4 1016.9 1016.9 4.2
01/08:30pm 9.9 8.8 9.9 100 0.0 S 6 9 3 5 1016.9 1016.9 4.2
01/08:00pm 9.9 8.6 9.9 100 0.0 SSE 7 11 4 6 1016.9 1016.9 4.2
01/07:30pm 10.0 8.9 10.0 100 0.0 S 6 9 3 5 1016.8 1016.8 4.2
01/07:00pm 10.1 8.0 9.6 97 0.3 SSE 11 13 6 7 1016.4 1016.4 4.2
01/06:30pm 10.4 8.0 9.9 97 0.3 SSE 13 17 7 9 1016.7 1016.7 4.2
01/06:00pm 10.6 8.6 10.1 97 0.3 SSE 11 13 6 7 1016.6 1016.6 4.2
01/05:30pm 10.8 7.8 9.4 91 0.7 SSE 15 19 8 10 1016.4 1016.4 4.2
01/05:00pm 11.2 9.0 9.3 88 1.0 ESE 11 13 6 7 1016.1 1016.1 4.2
01/04:30pm 11.5 8.8 8.9 84 1.3 SSE 13 19 7 10 1016.4 1016.4 4.2
01/04:00pm 11.7 8.4 8.2 79 1.7 ESE 15 20 8 11 1015.3 1015.4 4.2
01/03:30pm 12.2 8.4 9.2 82 1.5 SSE 19 22 10 12 1015.9 1015.9 4.2
01/03:00pm 11.4 8.0 9.3 87 1.1 S 17 24 9 13 1016.7 1016.7 4.2
01/02:30pm 11.5 8.2 9.6 88 1.0 SSE 17 20 9 11 1016.8 1016.8 4.2
01/02:00pm 11.7 8.2 10.1 90 0.8 SSE 19 24 10 13 1015.7 1015.7 4.2
01/01:30pm 10.8 7.8 10.8 100 0.0 S 17 22 9 12 1017.0 1017.0 4.2
01/01:00pm 10.8 7.3 10.8 100 0.0 S 20 30 11 16 1016.9 1016.9 4.0
01/12:30pm 11.0 7.5 11.0 100 0.0 S 20 30 11 16 1015.8 1015.8 3.6
01/12:00pm 11.6 8.9 11.6 100 0.0 S 17 26 9 14 1016.5 1016.5 3.4
01/11:30am 11.9 10.4 11.9 100 0.0 SSW 11 17 6 9 1016.9 1016.9 2.2
01/11:00am 11.8 10.7 11.8 100 0.0 SSW 9 15 5 8 1017.2 1017.2 0.8
01/10:30am 12.0 10.2 12.0 100 0.0 S 13 19 7 10 1016.5 1016.5 0.4
01/10:00am 11.9 9.3 11.9 100 0.0 SSW 17 24 9 13 1017.2 1017.2 0.0
01/09:30am 12.3 10.2 12.3 100 0.0 S 15 24 8 13 1016.2 1016.2 0.0
01/09:00am 12.4 10.3 12.4 100 0.0 SSW 15 22 8 12 1016.1 1016.1 1.8
01/08:30am 12.2 9.7 12.2 100 0.0 WNW 17 22 9 12 1015.2 1015.3 1.8
01/08:00am 12.1 10.3 12.1 100 0.0 WNW 13 17 7 9 1014.5 1014.6 1.8
01/07:30am 12.0 9.7 11.7 98 0.2 WNW 15 19 8 10 1014.4 1014.5 1.2
01/07:00am 12.3 9.1 11.2 93 0.6 WNW 19 22 10 12 1014.0 1014.1 1.0
01/06:30am 12.2 9.0 11.3 94 0.5 NW 19 26 10 14 1014.2 1014.3 0.8
01/06:00am 11.9 8.9 10.5 91 0.7 NW 17 20 9 11 1013.8 1013.9 0.6
01/05:30am 13.0 9.4 8.3 73 2.3 WNW 17 20 9 11 1013.5 1013.6 0.0
01/05:00am 13.2 7.9 6.8 65 3.1 NW 24 28 13 15 1013.0 1013.1 0.0
01/04:30am 13.6 8.6 6.5 62 3.4 NW 22 35 12 19 1013.7 1013.8 0.0
01/04:00am 15.4 10.6 4.5 48 5.1 NW 19 24 10 13 1012.8 1012.9 0.0
01/03:30am 15.1 11.5 6.9 58 4.0 NW 15 19 8 10 1012.8 1012.9 0.0
01/03:00am 15.1 11.8 8.1 63 3.5 NNW 15 19 8 10 1013.0 1013.1 0.0
01/02:30am 15.5 12.6 8.0 61 3.8 NW 13 17 7 9 1013.3 1013.4 0.0
01/02:00am 16.0 12.7 9.4 65 3.4 NW 17 20 9 11 1013.8 1013.9 0.0
01/01:30am 16.1 12.5 9.8 66 3.3 NW 19 24 10 13 1013.8 1013.9 0.0
01/01:00am 16.2 11.9 9.4 64 3.5 NW 22 32 12 17 1014.0 1014.1 0.0
01/12:30am 16.1 11.8 9.3 64 3.5 NW 22 32 12 17 1014.1 1014.2 0.0
01/12:00am 16.3 10.6 8.5 60 4.0 NW 28 37 15 20 1014.4 1014.5 0.0
 
Date/Time
CST
Temp
°C
App
Temp
°C
Dew
Point
Rel
Hum
%
Delta-T
°C
Wind Press
QNH
hPa
Press
MSL
hPa
Rain
since 9 am
mm
Dir
 
Spd
km/h
Gust
km/h
Spd
kts
Gust
kts
31/11:30pm 16.5 10.9 5.2 47 5.4 NW 24 37 13 20 1014.6 1014.7 0.0
31/11:00pm 15.8 10.9 5.1 49 5.1 NW 20 26 11 14 1014.8 1014.9 0.0

Other Formats:

Comma delimited format used in spreadsheet applications
http://www.bom.gov.au/fwo/IDS60801/IDS60801.95687.axf

JavaScript Object Notation format (JSON) in row-major order
http://www.bom.gov.au/fwo/IDS60801/IDS60801.95687.json